createdAt,value
2019-02-25T00:03:29.053Z,73.88
2019-02-25T00:06:11.331Z,74.12
2019-02-25T00:08:46.496Z,73.79
2019-02-25T00:11:21.502Z,73.60
2019-02-25T00:13:56.364Z,73.62
2019-02-25T00:16:34.541Z,73.15
2019-02-25T00:19:09.386Z,73.97
2019-02-25T00:21:50.726Z,74.01
2019-02-25T00:24:25.606Z,73.37
2019-02-25T00:27:00.623Z,73.66
2019-02-25T00:29:35.598Z,73.82
2019-02-25T00:32:11.438Z,74.39
2019-02-25T00:34:46.305Z,74.33
2019-02-25T00:37:21.203Z,74.42
2019-02-25T00:39:56.180Z,74.10
2019-02-25T00:42:31.119Z,74.15
2019-02-25T00:48:47.466Z,74.52
2019-02-25T00:51:22.467Z,74.19
2019-02-25T01:00:14.290Z,74.96
2019-02-25T01:06:08.938Z,74.87
2019-02-25T01:09:08.558Z,74.92
2019-02-25T01:12:07.614Z,74.66
2019-02-25T01:14:58.621Z,74.83
2019-02-25T01:24:27.813Z,74.91
2019-02-25T01:30:28.788Z,74.48
2019-02-25T01:33:03.692Z,74.66
2019-02-25T01:36:00.059Z,74.67
2019-02-25T01:38:35.028Z,74.68
2019-02-25T01:41:16.141Z,75.21
2019-02-25T01:44:09.197Z,75.22
2019-02-25T01:50:59.006Z,75.08
2019-02-25T01:53:45.600Z,75.09
2019-02-25T01:56:31.281Z,75.30
2019-02-25T01:59:29.341Z,75.40
2019-02-25T02:02:17.462Z,75.27
2019-02-25T02:04:52.353Z,75.94
2019-02-25T02:07:28.148Z,75.91
2019-02-25T02:10:03.992Z,75.80
2019-02-25T02:12:53.206Z,75.78
2019-02-25T02:15:42.287Z,76.09
2019-02-25T02:18:31.214Z,76.13
2019-02-25T02:21:28.455Z,75.99
2019-02-25T02:24:17.040Z,76.11
2019-02-25T02:27:06.790Z,75.79
2019-02-25T02:29:56.221Z,76.40
2019-02-25T02:32:32.007Z,76.16
2019-02-25T02:35:29.893Z,75.79
2019-02-25T02:38:07.034Z,75.96
2019-02-25T02:40:55.981Z,76.13
2019-02-25T02:43:46.070Z,76.35
2019-02-25T02:46:44.702Z,76.08
2019-02-25T02:49:33.514Z,76.15
2019-02-25T02:52:22.352Z,75.97
2019-02-25T02:55:13.325Z,76.45
2019-02-25T02:58:05.782Z,76.05
2019-02-25T03:00:55.161Z,76.04
2019-02-25T03:03:45.275Z,75.96
2019-02-25T03:06:36.131Z,75.75
2019-02-25T03:09:29.277Z,75.73
2019-02-25T03:12:06.119Z,75.70
2019-02-25T03:15:15.595Z,75.53
2019-02-25T03:18:13.669Z,75.82
2019-02-25T03:21:03.602Z,75.85
2019-02-25T03:23:39.864Z,75.52
2019-02-25T03:27:06.575Z,75.96
2019-02-25T03:36:07.935Z,75.96
2019-02-25T03:38:43.706Z,76.07
2019-02-25T03:41:32.787Z,75.98
2019-02-25T03:44:33.338Z,75.71
2019-02-25T03:47:08.237Z,76.15
2019-02-25T03:49:43.139Z,76.41
2019-02-25T03:52:18.911Z,76.31
2019-02-25T03:54:54.778Z,76.33
2019-02-25T03:57:29.733Z,76.29
2019-02-25T04:03:58.098Z,76.10
2019-02-25T04:10:09.928Z,76.70
2019-02-25T04:12:45.865Z,76.40
2019-02-25T04:15:36.979Z,76.52
2019-02-25T04:18:14.305Z,76.47
2019-02-25T04:20:51.656Z,76.94
2019-02-25T04:23:28.999Z,77.14
2019-02-25T04:26:06.366Z,77.45
2019-02-25T04:28:43.676Z,77.24
2019-02-25T04:31:19.902Z,77.38
2019-02-25T04:33:55.795Z,77.62
2019-02-25T04:36:31.547Z,77.40
2019-02-25T04:40:08.279Z,77.14
2019-02-25T04:43:06.270Z,77.09
2019-02-25T04:50:34.187Z,77.10
2019-02-25T04:53:09.117Z,77.24
2019-02-25T04:55:44.010Z,77.55
2019-02-25T04:59:15.276Z,77.54
2019-02-25T05:10:27.911Z,77.76
2019-02-25T05:13:19.726Z,77.92
2019-02-25T05:19:31.363Z,78.20
2019-02-25T05:30:03.629Z,78.39
2019-02-25T05:32:47.623Z,78.27
2019-02-25T05:35:23.411Z,78.14
2019-02-25T05:42:35.904Z,78.48
2019-02-25T05:45:11.026Z,78.75
2019-02-25T05:51:16.224Z,78.72
2019-02-25T05:53:54.046Z,78.85
2019-02-25T05:56:28.817Z,78.66
2019-02-25T05:59:51.162Z,78.63
2019-02-25T06:03:12.335Z,78.71
2019-02-25T06:09:35.375Z,78.68
2019-02-25T06:12:57.373Z,78.72
2019-02-25T06:15:32.468Z,78.63
2019-02-25T06:18:10.374Z,78.67
2019-02-25T06:23:43.261Z,78.70
2019-02-25T06:26:33.166Z,78.96
2019-02-25T06:29:33.853Z,79.36
2019-02-25T06:32:09.563Z,79.61
2019-02-25T06:34:45.359Z,79.15
2019-02-25T06:37:33.921Z,79.23
2019-02-25T06:40:10.919Z,79.37
2019-02-25T06:42:47.084Z,79.13
2019-02-25T06:45:23.059Z,79.02
2019-02-25T06:47:57.971Z,78.89
2019-02-25T06:50:33.047Z,78.76
2019-02-25T06:53:08.444Z,79.19
2019-02-25T06:55:43.599Z,79.09
2019-02-25T06:58:18.471Z,78.75
2019-02-25T07:00:53.450Z,78.81
2019-02-25T07:03:28.622Z,78.95
2019-02-25T07:06:17.464Z,78.79
2019-02-25T07:09:05.965Z,78.87
2019-02-25T07:12:02.652Z,78.98
2019-02-25T07:14:49.510Z,78.52
2019-02-25T07:17:43.360Z,78.70
2019-02-25T07:20:28.615Z,78.81
2019-02-25T07:23:09.196Z,78.88
2019-02-25T07:25:54.207Z,78.52
2019-02-25T07:28:51.826Z,78.39
2019-02-25T07:31:41.679Z,78.04
2019-02-25T07:34:38.461Z,77.69
2019-02-25T07:37:25.923Z,77.78
2019-02-25T07:40:23.695Z,77.95
2019-02-25T07:43:12.965Z,78.00
2019-02-25T07:46:11.573Z,77.89
2019-02-25T07:49:05.711Z,77.97
2019-02-25T07:51:57.829Z,77.62
2019-02-25T07:54:51.640Z,77.45
2019-02-25T07:58:04.542Z,77.30
2019-02-25T08:00:49.397Z,76.98
2019-02-25T08:03:30.970Z,76.77
2019-02-25T08:06:20.310Z,76.48
2019-02-25T08:09:05.003Z,76.36
2019-02-25T08:12:06.541Z,75.97
2019-02-25T08:15:03.049Z,75.20
2019-02-25T08:17:48.676Z,74.96
2019-02-25T08:20:45.636Z,74.45
2019-02-25T08:23:38.495Z,73.95
2019-02-25T08:26:47.104Z,73.58
2019-02-25T08:29:53.088Z,72.96
2019-02-25T08:32:52.522Z,71.53
2019-02-25T08:36:39.673Z,70.91
2019-02-25T08:39:24.409Z,70.50
2019-02-25T08:42:23.731Z,69.47
2019-02-25T08:45:07.283Z,68.43
2019-02-25T08:47:48.864Z,67.25
2019-02-25T08:50:25.671Z,66.99
2019-02-25T08:53:00.438Z,64.05
2019-02-25T08:55:35.453Z,64.94
2019-02-25T08:58:10.488Z,63.47
2019-02-25T09:00:45.320Z,58.86
2019-02-25T09:03:20.409Z,58.67
2019-02-25T09:05:55.232Z,59.80
2019-02-25T09:08:30.172Z,56.49
2019-02-25T09:11:13.755Z,54.45
2019-02-25T09:13:42.485Z,55.28
2019-02-25T09:16:17.402Z,55.52
2019-02-25T09:18:52.296Z,56.22
2019-02-25T09:21:31.842Z,57.16
2019-02-25T09:24:03.990Z,56.13
2019-02-25T09:26:42.638Z,58.01
2019-02-25T09:29:17.515Z,57.79
2019-02-25T09:31:52.494Z,57.32
2019-02-25T09:34:27.384Z,58.02
2019-02-25T09:37:02.372Z,58.59
2019-02-25T09:39:37.328Z,57.80
2019-02-25T09:42:13.814Z,57.46
2019-02-25T09:44:48.592Z,56.02
2019-02-25T09:47:23.497Z,57.06
2019-02-25T09:49:58.401Z,56.69
2019-02-25T09:52:34.228Z,55.74
2019-02-25T09:55:11.013Z,55.06
2019-02-25T09:57:45.809Z,55.47
2019-02-25T10:00:20.877Z,54.96
2019-02-25T10:02:55.796Z,54.34
2019-02-25T10:05:30.876Z,52.78
2019-02-25T10:08:06.222Z,53.39
2019-02-25T10:10:41.157Z,48.98
2019-02-25T10:13:16.066Z,52.28
2019-02-25T10:15:50.990Z,51.88
2019-02-25T10:18:25.890Z,50.92
2019-02-25T10:21:00.678Z,48.89
2019-02-25T10:23:36.583Z,48.29
2019-02-25T10:26:11.516Z,47.64
2019-02-25T10:28:46.455Z,48.86
2019-02-25T10:31:21.366Z,49.43
2019-02-25T10:33:56.274Z,49.27
2019-02-25T10:36:31.339Z,47.33
2019-02-25T10:39:12.910Z,45.61
2019-02-25T10:41:48.078Z,44.88
2019-02-25T10:44:23.124Z,44.63
2019-02-25T10:46:58.026Z,44.82
2019-02-25T10:49:33.764Z,44.72
2019-02-25T10:52:10.712Z,45.70
2019-02-25T10:54:45.436Z,46.12
2019-02-25T10:57:26.439Z,44.85
2019-02-25T11:00:00.612Z,43.87
2019-02-25T11:02:44.181Z,44.57
2019-02-25T11:05:15.426Z,47.23
2019-02-25T11:07:51.170Z,46.43
2019-02-25T11:10:33.596Z,47.35
2019-02-25T11:13:08.404Z,45.52
2019-02-25T11:15:44.538Z,44.37
2019-02-25T11:18:21.935Z,44.77
2019-02-25T11:20:56.672Z,45.63
2019-02-25T11:23:31.574Z,43.44
2019-02-25T11:26:06.588Z,43.46
2019-02-25T11:28:43.701Z,41.03
2019-02-25T11:31:22.138Z,42.75
2019-02-25T11:33:56.271Z,38.38
2019-02-25T11:36:31.284Z,40.95
2019-02-25T11:39:09.449Z,40.46
2019-02-25T11:41:44.318Z,38.76
2019-02-25T11:44:21.098Z,38.03
2019-02-25T11:46:55.858Z,41.55
2019-02-25T11:49:30.785Z,41.59
2019-02-25T11:52:05.776Z,41.51
2019-02-25T11:54:40.989Z,42.09
2019-02-25T11:57:15.981Z,39.85
2019-02-25T11:59:51.057Z,38.29
2019-02-25T12:02:26.204Z,40.49
2019-02-25T12:05:01.230Z,39.51
2019-02-25T12:07:36.091Z,39.63
2019-02-25T12:10:11.230Z,38.42
2019-02-25T12:12:46.277Z,37.31
2019-02-25T12:15:21.288Z,37.08
2019-02-25T12:17:56.254Z,35.27
2019-02-25T12:20:31.192Z,33.95
2019-02-25T12:23:06.190Z,33.67
2019-02-25T12:25:41.141Z,33.49
2019-02-25T12:28:16.021Z,32.27
2019-02-25T12:30:51.002Z,30.75
2019-02-25T12:33:26.772Z,30.47
2019-02-25T12:36:03.370Z,30.00
2019-02-25T12:38:38.395Z,28.84
2019-02-25T12:41:13.319Z,30.43
2019-02-25T12:43:48.211Z,30.74
2019-02-25T12:46:23.112Z,29.33
2019-02-25T12:48:58.002Z,30.11
2019-02-25T12:51:33.020Z,31.11
2019-02-25T12:54:08.179Z,28.55
2019-02-25T12:56:45.810Z,28.67
2019-02-25T12:59:20.703Z,27.86
2019-02-25T13:01:55.724Z,28.70
2019-02-25T13:04:30.750Z,28.77
2019-02-25T13:07:05.644Z,27.57
2019-02-25T13:09:40.574Z,27.64
2019-02-25T13:12:15.470Z,26.75
2019-02-25T13:14:50.387Z,25.20
2019-02-25T13:17:25.220Z,25.26
2019-02-25T13:20:00.277Z,25.10
2019-02-25T13:22:35.339Z,26.39
2019-02-25T13:25:16.855Z,24.77
2019-02-25T13:27:54.330Z,24.01
2019-02-25T13:30:29.464Z,25.78
2019-02-25T13:33:04.481Z,25.22
2019-02-25T13:35:39.513Z,24.16
2019-02-25T13:38:14.468Z,24.96
2019-02-25T13:40:49.364Z,26.04
2019-02-25T13:43:24.338Z,25.40
2019-02-25T13:45:59.459Z,26.56
2019-02-25T13:48:34.520Z,26.81
2019-02-25T13:51:09.480Z,26.99
2019-02-25T13:53:44.424Z,25.54
2019-02-25T13:56:19.465Z,26.15
2019-02-25T13:58:54.949Z,25.36
2019-02-25T14:01:30.764Z,24.36
2019-02-25T14:04:05.601Z,23.43
2019-02-25T14:06:40.575Z,22.60
2019-02-25T14:09:15.542Z,24.18
2019-02-25T14:11:52.016Z,23.90
2019-02-25T14:14:26.966Z,24.32
2019-02-25T14:17:01.876Z,22.54
2019-02-25T14:19:36.718Z,22.55
2019-02-25T14:22:11.616Z,23.52
2019-02-25T14:24:46.540Z,24.52
2019-02-25T14:27:21.494Z,23.79
2019-02-25T14:29:56.313Z,23.45
2019-02-25T14:32:31.405Z,22.73
2019-02-25T14:35:07.866Z,23.11
2019-02-25T14:37:43.167Z,22.73
2019-02-25T14:40:21.635Z,23.32
2019-02-25T14:42:57.449Z,22.30
2019-02-25T14:45:34.295Z,22.80
2019-02-25T14:48:10.771Z,22.18
2019-02-25T14:50:46.374Z,23.51
2019-02-25T14:53:21.383Z,23.24
2019-02-25T14:55:58.399Z,23.40
2019-02-25T14:58:35.562Z,22.61
2019-02-25T15:01:09.791Z,21.98
2019-02-25T15:03:44.682Z,23.31
2019-02-25T15:06:19.644Z,23.14
2019-02-25T15:08:54.553Z,23.48
2019-02-25T15:11:29.611Z,22.87
2019-02-25T15:14:05.926Z,23.38
2019-02-25T15:16:41.284Z,22.39
2019-02-25T15:19:17.059Z,23.24
2019-02-25T15:21:54.110Z,23.54
2019-02-25T15:24:28.711Z,24.59
2019-02-25T15:27:04.490Z,25.51
2019-02-25T15:29:42.138Z,27.30
2019-02-25T15:32:17.205Z,29.64
2019-02-25T15:34:52.835Z,28.93
2019-02-25T15:37:29.259Z,29.73
2019-02-25T15:40:16.007Z,30.78
2019-02-25T15:43:02.828Z,30.19
2019-02-25T15:45:40.674Z,31.55
2019-02-25T15:48:18.504Z,31.80
2019-02-25T15:50:57.958Z,31.45
2019-02-25T15:53:33.362Z,31.53
2019-02-25T15:56:10.659Z,33.61
2019-02-25T15:58:47.388Z,34.19
2019-02-25T16:01:22.312Z,34.60
2019-02-25T16:04:02.258Z,35.52
2019-02-25T16:06:35.579Z,34.04
2019-02-25T16:09:13.140Z,36.28
2019-02-25T16:11:48.072Z,34.57
2019-02-25T16:14:23.908Z,36.82
2019-02-25T16:16:59.950Z,36.09
2019-02-25T16:19:41.369Z,37.62
2019-02-25T16:22:11.855Z,38.88
2019-02-25T16:24:47.132Z,39.65
2019-02-25T16:27:23.242Z,40.30
2019-02-25T16:30:00.250Z,42.02
2019-02-25T16:32:40.123Z,42.97
2019-02-25T16:35:15.717Z,44.10
2019-02-25T16:37:53.096Z,44.32
2019-02-25T16:40:29.160Z,46.30
2019-02-25T16:43:05.271Z,47.87
2019-02-25T16:45:42.587Z,48.42
2019-02-25T16:48:18.862Z,50.03
2019-02-25T16:50:54.147Z,49.79
2019-02-25T16:53:29.707Z,50.77
2019-02-25T16:56:05.751Z,51.83
2019-02-25T16:58:42.662Z,51.60
2019-02-25T17:01:19.986Z,52.61
2019-02-25T17:03:54.983Z,53.51
2019-02-25T17:06:30.843Z,54.21
2019-02-25T17:09:11.785Z,55.22
2019-02-25T17:11:47.246Z,55.51
2019-02-25T17:14:40.075Z,53.77
2019-02-25T17:17:59.110Z,55.18
2019-02-25T17:20:35.376Z,56.37
2019-02-25T17:23:10.415Z,56.84
2019-02-25T17:25:45.307Z,56.93
2019-02-25T17:28:20.825Z,56.81
2019-02-25T17:30:56.796Z,56.06
2019-02-25T17:33:34.506Z,56.72
2019-02-25T17:36:12.411Z,57.50
2019-02-25T17:38:49.620Z,58.39
2019-02-25T17:41:24.300Z,58.49
2019-02-25T17:44:01.324Z,58.49
2019-02-25T17:49:38.971Z,58.92
2019-02-25T17:52:16.365Z,59.37
2019-02-25T17:55:06.359Z,60.00
2019-02-25T17:57:42.005Z,59.40
2019-02-25T18:00:32.599Z,59.70
2019-02-25T18:03:09.598Z,60.54
2019-02-25T18:05:44.717Z,60.14
2019-02-25T18:08:20.196Z,60.55
2019-02-25T18:10:54.999Z,60.89
2019-02-25T18:13:30.659Z,61.25
2019-02-25T18:16:08.549Z,61.49
2019-02-25T18:18:45.101Z,61.91
2019-02-25T18:21:20.860Z,61.95
2019-02-25T18:24:00.041Z,62.52
2019-02-25T18:26:35.394Z,62.88
2019-02-25T18:29:11.717Z,63.06
2019-02-25T18:31:47.123Z,62.92
2019-02-25T18:34:22.149Z,63.00
2019-02-25T18:36:57.072Z,63.32
2019-02-25T18:39:32.155Z,63.70
2019-02-25T18:42:09.202Z,63.91
2019-02-25T18:44:45.350Z,63.92
2019-02-25T18:47:23.462Z,64.36
2019-02-25T18:50:00.956Z,64.12
2019-02-25T18:52:38.520Z,63.92
2019-02-25T18:55:16.013Z,64.21
2019-02-25T18:57:52.314Z,64.34
2019-02-25T19:00:40.134Z,64.79
2019-02-25T19:03:15.219Z,64.71
2019-02-25T19:05:52.815Z,64.94
2019-02-25T19:08:29.053Z,65.66
2019-02-25T19:11:04.318Z,65.49
2019-02-25T19:13:39.443Z,65.54
2019-02-25T19:16:15.848Z,65.70
2019-02-25T19:18:51.311Z,65.51
2019-02-25T19:21:29.533Z,65.52
2019-02-25T19:24:05.557Z,65.56
2019-02-25T19:26:43.008Z,65.33
2019-02-25T19:29:25.864Z,65.60
2019-02-25T19:32:01.837Z,65.77
2019-02-25T19:34:39.743Z,65.89
2019-02-25T19:37:15.494Z,66.38
2019-02-25T19:39:50.735Z,66.44
2019-02-25T19:42:26.967Z,66.15
2019-02-25T19:45:06.351Z,66.38
2019-02-25T19:47:43.217Z,66.53
2019-02-25T19:50:18.865Z,66.67
2019-02-25T19:52:54.922Z,66.91
2019-02-25T19:55:29.967Z,67.41
2019-02-25T19:58:05.243Z,67.55
2019-02-25T20:00:40.153Z,67.75
2019-02-25T20:03:15.246Z,67.68
2019-02-25T20:05:52.082Z,67.75
2019-02-25T20:08:27.139Z,67.85
2019-02-25T20:11:02.159Z,67.79
2019-02-25T20:13:37.475Z,67.72
2019-02-25T20:16:15.751Z,68.05
2019-02-25T20:18:49.115Z,68.27
2019-02-25T20:21:24.602Z,68.56
2019-02-25T20:24:00.888Z,68.54
2019-02-25T20:26:36.370Z,69.25
2019-02-25T20:29:12.739Z,68.62
2019-02-25T20:31:49.618Z,69.05
2019-02-25T20:34:25.892Z,69.14
2019-02-25T20:37:02.282Z,69.33
2019-02-25T20:39:38.642Z,69.04
2019-02-25T20:42:17.301Z,68.38
2019-02-25T20:44:52.973Z,68.90
2019-02-25T20:47:28.629Z,69.26
2019-02-25T20:50:05.390Z,69.03
2019-02-25T20:52:40.885Z,69.13
2019-02-25T20:55:17.814Z,69.04
2019-02-25T20:57:54.390Z,68.84
2019-02-25T21:00:29.702Z,69.03
2019-02-25T21:03:04.826Z,69.37
2019-02-25T21:05:39.927Z,69.43
2019-02-25T21:08:19.157Z,69.64
2019-02-25T21:10:54.632Z,70.10
2019-02-25T21:13:31.262Z,69.80
2019-02-25T21:16:09.812Z,69.76
2019-02-25T21:18:44.383Z,69.72
2019-02-25T21:21:20.347Z,69.68
2019-02-25T21:23:55.363Z,70.37
2019-02-25T21:26:31.559Z,70.45
2019-02-25T21:29:09.588Z,70.64
2019-02-25T21:31:45.730Z,70.65
2019-02-25T21:34:24.111Z,70.30
2019-02-25T21:36:58.541Z,70.72
2019-02-25T21:39:36.146Z,70.65
2019-02-25T21:42:14.755Z,71.08
2019-02-25T21:44:48.629Z,70.94
2019-02-25T21:47:28.715Z,70.95
2019-02-25T21:50:11.881Z,70.83
2019-02-25T21:52:47.973Z,70.92
2019-02-25T21:55:25.110Z,71.20
2019-02-25T21:58:02.111Z,71.29
2019-02-25T22:00:40.218Z,71.34
2019-02-25T22:03:15.677Z,70.86
2019-02-25T22:05:53.251Z,71.45
2019-02-25T22:08:29.049Z,71.48
2019-02-25T22:11:12.382Z,71.86
2019-02-25T22:13:42.042Z,71.91
2019-02-25T22:16:17.081Z,71.67
2019-02-25T22:18:52.670Z,71.50
2019-02-25T22:21:28.607Z,71.41
2019-02-25T22:24:05.393Z,71.73
2019-02-25T22:26:40.290Z,71.74
2019-02-25T22:29:15.224Z,71.91
2019-02-25T22:31:50.206Z,72.14
2019-02-25T22:34:25.453Z,72.29
2019-02-25T22:37:02.414Z,72.14
2019-02-25T22:39:38.060Z,72.46
2019-02-25T22:42:13.862Z,72.60
2019-02-25T22:44:49.667Z,72.78
2019-02-25T22:47:25.539Z,73.08
2019-02-25T22:50:00.584Z,72.99
2019-02-25T22:52:37.317Z,72.69
2019-02-25T22:55:14.851Z,72.97
2019-02-25T22:57:53.459Z,73.25
2019-02-25T23:00:31.218Z,73.36
2019-02-25T23:03:11.088Z,73.09
2019-02-25T23:05:45.987Z,73.26
2019-02-25T23:08:23.423Z,73.29
2019-02-25T23:10:58.010Z,73.71
2019-02-25T23:13:33.092Z,73.62
2019-02-25T23:16:08.320Z,73.58
2019-02-25T23:18:43.306Z,73.42
2019-02-25T23:21:23.915Z,73.76
2019-02-25T23:23:55.857Z,73.78
2019-02-25T23:26:31.461Z,73.67
2019-02-25T23:29:06.517Z,73.43
2019-02-25T23:31:43.421Z,73.65
2019-02-25T23:34:20.328Z,74.08
2019-02-25T23:36:56.204Z,73.98
2019-02-25T23:39:32.389Z,73.83
2019-02-25T23:42:09.245Z,73.69
2019-02-25T23:44:44.784Z,73.83
2019-02-25T23:47:19.632Z,74.39
2019-02-25T23:49:55.466Z,73.47
2019-02-25T23:52:33.647Z,73.71
2019-02-25T23:55:12.236Z,73.92
2019-02-25T23:57:45.948Z,73.92
